sensor_id;sensor_type;location;lat;lon;timestamp;P1;durP1;ratioP1;P2;durP2;ratioP2
17595;SDS011;8916;47.086;15.920;2022-10-22T00:02:03;34.80;;;24.40;;
17595;SDS011;8916;47.086;15.920;2022-10-22T00:04:34;40.13;;;27.30;;
17595;SDS011;8916;47.086;15.920;2022-10-22T00:07:03;46.65;;;29.02;;
17595;SDS011;8916;47.086;15.920;2022-10-22T00:09:33;46.72;;;29.63;;
17595;SDS011;8916;47.086;15.920;2022-10-22T00:12:02;51.72;;;34.05;;
17595;SDS011;8916;47.086;15.920;2022-10-22T00:14:32;50.00;;;31.70;;
17595;SDS011;8916;47.086;15.920;2022-10-22T00:17:02;48.33;;;30.50;;
17595;SDS011;8916;47.086;15.920;2022-10-22T00:19:36;50.15;;;29.67;;
17595;SDS011;8916;47.086;15.920;2022-10-22T00:22:06;44.10;;;28.65;;
17595;SDS011;8916;47.086;15.920;2022-10-22T00:24:36;45.65;;;29.35;;
17595;SDS011;8916;47.086;15.920;2022-10-22T00:27:07;53.40;;;32.55;;
17595;SDS011;8916;47.086;15.920;2022-10-22T00:29:38;59.80;;;34.08;;
17595;SDS011;8916;47.086;15.920;2022-10-22T00:32:09;55.03;;;34.25;;
17595;SDS011;8916;47.086;15.920;2022-10-22T00:34:38;49.67;;;32.65;;
17595;SDS011;8916;47.086;15.920;2022-10-22T00:37:07;52.50;;;31.02;;
17595;SDS011;8916;47.086;15.920;2022-10-22T00:39:36;46.88;;;30.50;;
17595;SDS011;8916;47.086;15.920;2022-10-22T00:42:05;54.92;;;34.45;;
17595;SDS011;8916;47.086;15.920;2022-10-22T00:47:35;56.33;;;35.35;;
17595;SDS011;8916;47.086;15.920;2022-10-22T00:50:08;56.08;;;31.17;;
17595;SDS011;8916;47.086;15.920;2022-10-22T00:52:41;45.35;;;27.63;;
17595;SDS011;8916;47.086;15.920;2022-10-22T00:55:10;45.72;;;29.10;;
17595;SDS011;8916;47.086;15.920;2022-10-22T00:57:41;43.80;;;28.90;;
17595;SDS011;8916;47.086;15.920;2022-10-22T01:00:11;43.97;;;28.55;;
17595;SDS011;8916;47.086;15.920;2022-10-22T01:02:43;46.25;;;29.13;;
17595;SDS011;8916;47.086;15.920;2022-10-22T01:05:12;51.67;;;30.90;;
17595;SDS011;8916;47.086;15.920;2022-10-22T01:07:42;45.28;;;30.55;;
17595;SDS011;8916;47.086;15.920;2022-10-22T01:10:17;42.95;;;26.20;;
17595;SDS011;8916;47.086;15.920;2022-10-22T01:13:01;41.85;;;28.17;;
17595;SDS011;8916;47.086;15.920;2022-10-22T01:15:44;49.72;;;30.90;;
17595;SDS011;8916;47.086;15.920;2022-10-22T01:18:21;50.00;;;29.17;;
17595;SDS011;8916;47.086;15.920;2022-10-22T01:21:02;49.80;;;28.77;;
17595;SDS011;8916;47.086;15.920;2022-10-22T01:27:08;43.55;;;26.08;;
17595;SDS011;8916;47.086;15.920;2022-10-22T01:29:50;52.28;;;29.30;;
17595;SDS011;8916;47.086;15.920;2022-10-22T01:32:23;46.85;;;29.58;;
17595;SDS011;8916;47.086;15.920;2022-10-22T01:34:59;41.80;;;28.05;;
17595;SDS011;8916;47.086;15.920;2022-10-22T01:37:32;49.42;;;27.88;;
17595;SDS011;8916;47.086;15.920;2022-10-22T01:40:07;45.22;;;28.33;;
17595;SDS011;8916;47.086;15.920;2022-10-22T01:42:37;46.67;;;28.45;;
17595;SDS011;8916;47.086;15.920;2022-10-22T01:45:12;41.75;;;27.13;;
17595;SDS011;8916;47.086;15.920;2022-10-22T01:47:45;39.53;;;25.52;;
17595;SDS011;8916;47.086;15.920;2022-10-22T01:50:38;38.67;;;26.33;;
17595;SDS011;8916;47.086;15.920;2022-10-22T01:53:24;42.75;;;26.98;;
17595;SDS011;8916;47.086;15.920;2022-10-22T01:56:05;52.22;;;30.65;;
17595;SDS011;8916;47.086;15.920;2022-10-22T01:58:48;59.35;;;28.77;;
17595;SDS011;8916;47.086;15.920;2022-10-22T02:01:28;51.75;;;30.25;;
17595;SDS011;8916;47.086;15.920;2022-10-22T02:04:04;48.95;;;28.90;;
17595;SDS011;8916;47.086;15.920;2022-10-22T02:06:39;48.23;;;28.60;;
17595;SDS011;8916;47.086;15.920;2022-10-22T02:09:11;43.17;;;25.55;;
17595;SDS011;8916;47.086;15.920;2022-10-22T02:11:44;46.88;;;27.52;;
17595;SDS011;8916;47.086;15.920;2022-10-22T02:14:15;51.55;;;30.98;;
17595;SDS011;8916;47.086;15.920;2022-10-22T02:16:48;45.22;;;29.17;;
17595;SDS011;8916;47.086;15.920;2022-10-22T02:19:18;44.35;;;30.15;;
17595;SDS011;8916;47.086;15.920;2022-10-22T02:21:54;51.83;;;32.25;;
17595;SDS011;8916;47.086;15.920;2022-10-22T02:24:23;56.83;;;35.03;;
17595;SDS011;8916;47.086;15.920;2022-10-22T02:26:54;50.83;;;33.72;;
17595;SDS011;8916;47.086;15.920;2022-10-22T02:29:34;58.28;;;36.63;;
17595;SDS011;8916;47.086;15.920;2022-10-22T02:32:09;56.78;;;37.78;;
17595;SDS011;8916;47.086;15.920;2022-10-22T02:34:43;63.63;;;40.33;;
17595;SDS011;8916;47.086;15.920;2022-10-22T02:37:15;60.08;;;37.97;;
17595;SDS011;8916;47.086;15.920;2022-10-22T02:39:45;63.42;;;40.28;;
17595;SDS011;8916;47.086;15.920;2022-10-22T02:42:16;66.30;;;42.15;;
17595;SDS011;8916;47.086;15.920;2022-10-22T02:44:45;62.60;;;38.25;;
17595;SDS011;8916;47.086;15.920;2022-10-22T02:47:16;56.28;;;35.95;;
17595;SDS011;8916;47.086;15.920;2022-10-22T02:49:45;56.05;;;35.67;;
17595;SDS011;8916;47.086;15.920;2022-10-22T02:52:14;52.33;;;35.83;;
17595;SDS011;8916;47.086;15.920;2022-10-22T02:54:43;46.78;;;30.50;;
17595;SDS011;8916;47.086;15.920;2022-10-22T02:57:12;48.33;;;30.33;;
17595;SDS011;8916;47.086;15.920;2022-10-22T02:59:41;49.17;;;29.27;;
17595;SDS011;8916;47.086;15.920;2022-10-22T03:02:10;46.67;;;29.25;;
17595;SDS011;8916;47.086;15.920;2022-10-22T03:04:41;60.50;;;33.90;;
17595;SDS011;8916;47.086;15.920;2022-10-22T03:07:10;46.53;;;30.60;;
17595;SDS011;8916;47.086;15.920;2022-10-22T03:09:39;52.05;;;33.22;;
17595;SDS011;8916;47.086;15.920;2022-10-22T03:12:09;46.65;;;30.33;;
17595;SDS011;8916;47.086;15.920;2022-10-22T03:14:38;45.38;;;29.08;;
17595;SDS011;8916;47.086;15.920;2022-10-22T03:17:07;43.65;;;27.08;;
17595;SDS011;8916;47.086;15.920;2022-10-22T03:19:36;45.83;;;28.80;;
17595;SDS011;8916;47.086;15.920;2022-10-22T03:22:08;40.58;;;26.75;;
17595;SDS011;8916;47.086;15.920;2022-10-22T03:24:41;41.47;;;27.85;;
17595;SDS011;8916;47.086;15.920;2022-10-22T03:27:14;47.17;;;29.80;;
17595;SDS011;8916;47.086;15.920;2022-10-22T03:29:46;40.25;;;28.45;;
17595;SDS011;8916;47.086;15.920;2022-10-22T03:32:17;42.00;;;27.88;;
17595;SDS011;8916;47.086;15.920;2022-10-22T03:34:47;41.78;;;28.30;;
17595;SDS011;8916;47.086;15.920;2022-10-22T03:37:17;41.63;;;28.85;;
17595;SDS011;8916;47.086;15.920;2022-10-22T03:39:47;55.10;;;31.58;;
17595;SDS011;8916;47.086;15.920;2022-10-22T03:42:16;49.90;;;34.17;;
17595;SDS011;8916;47.086;15.920;2022-10-22T03:44:45;56.88;;;34.05;;
17595;SDS011;8916;47.086;15.920;2022-10-22T03:47:15;53.05;;;30.95;;
17595;SDS011;8916;47.086;15.920;2022-10-22T03:49:44;47.58;;;31.75;;
17595;SDS011;8916;47.086;15.920;2022-10-22T03:52:13;51.63;;;31.70;;
17595;SDS011;8916;47.086;15.920;2022-10-22T03:54:44;47.55;;;31.30;;
17595;SDS011;8916;47.086;15.920;2022-10-22T03:57:13;57.75;;;34.75;;
17595;SDS011;8916;47.086;15.920;2022-10-22T03:59:43;60.92;;;35.58;;
17595;SDS011;8916;47.086;15.920;2022-10-22T04:02:13;51.92;;;32.90;;
17595;SDS011;8916;47.086;15.920;2022-10-22T04:04:42;45.88;;;30.95;;
17595;SDS011;8916;47.086;15.920;2022-10-22T04:07:11;47.53;;;30.48;;
17595;SDS011;8916;47.086;15.920;2022-10-22T04:09:41;57.70;;;31.45;;
17595;SDS011;8916;47.086;15.920;2022-10-22T04:12:11;48.10;;;29.73;;
17595;SDS011;8916;47.086;15.920;2022-10-22T04:14:40;52.63;;;32.25;;
17595;SDS011;8916;47.086;15.920;2022-10-22T04:17:09;47.50;;;31.17;;
17595;SDS011;8916;47.086;15.920;2022-10-22T04:19:38;53.88;;;33.22;;
17595;SDS011;8916;47.086;15.920;2022-10-22T04:22:10;55.22;;;33.83;;
17595;SDS011;8916;47.086;15.920;2022-10-22T04:24:39;54.80;;;34.38;;
17595;SDS011;8916;47.086;15.920;2022-10-22T04:27:08;64.38;;;38.63;;
17595;SDS011;8916;47.086;15.920;2022-10-22T04:29:38;52.28;;;33.40;;
17595;SDS011;8916;47.086;15.920;2022-10-22T04:32:07;54.72;;;32.45;;
17595;SDS011;8916;47.086;15.920;2022-10-22T04:34:36;50.65;;;31.17;;
17595;SDS011;8916;47.086;15.920;2022-10-22T04:37:06;44.45;;;29.00;;
17595;SDS011;8916;47.086;15.920;2022-10-22T04:39:35;52.00;;;30.67;;
17595;SDS011;8916;47.086;15.920;2022-10-22T04:42:04;47.90;;;29.30;;
17595;SDS011;8916;47.086;15.920;2022-10-22T04:44:33;45.65;;;28.83;;
17595;SDS011;8916;47.086;15.920;2022-10-22T04:47:04;43.53;;;28.02;;
17595;SDS011;8916;47.086;15.920;2022-10-22T04:49:33;46.58;;;28.90;;
17595;SDS011;8916;47.086;15.920;2022-10-22T04:52:02;53.00;;;30.27;;
17595;SDS011;8916;47.086;15.920;2022-10-22T04:54:31;54.00;;;32.40;;
17595;SDS011;8916;47.086;15.920;2022-10-22T04:57:00;62.95;;;35.55;;
17595;SDS011;8916;47.086;15.920;2022-10-22T04:59:29;59.92;;;35.95;;
17595;SDS011;8916;47.086;15.920;2022-10-22T05:01:58;61.72;;;35.60;;
17595;SDS011;8916;47.086;15.920;2022-10-22T05:04:29;58.17;;;35.42;;
17595;SDS011;8916;47.086;15.920;2022-10-22T05:06:58;56.55;;;34.72;;
17595;SDS011;8916;47.086;15.920;2022-10-22T05:09:27;56.58;;;34.78;;
17595;SDS011;8916;47.086;15.920;2022-10-22T05:11:56;54.53;;;32.00;;
17595;SDS011;8916;47.086;15.920;2022-10-22T05:14:25;50.38;;;31.85;;
17595;SDS011;8916;47.086;15.920;2022-10-22T05:16:54;46.13;;;30.38;;
17595;SDS011;8916;47.086;15.920;2022-10-22T05:19:24;46.78;;;29.77;;
17595;SDS011;8916;47.086;15.920;2022-10-22T05:22:00;46.53;;;29.33;;
17595;SDS011;8916;47.086;15.920;2022-10-22T05:24:32;46.47;;;27.83;;
17595;SDS011;8916;47.086;15.920;2022-10-22T05:27:03;48.88;;;30.25;;
17595;SDS011;8916;47.086;15.920;2022-10-22T05:29:32;53.75;;;32.67;;
17595;SDS011;8916;47.086;15.920;2022-10-22T05:32:01;47.42;;;32.13;;
17595;SDS011;8916;47.086;15.920;2022-10-22T05:34:31;50.65;;;32.05;;
17595;SDS011;8916;47.086;15.920;2022-10-22T05:37:03;58.72;;;33.88;;
17595;SDS011;8916;47.086;15.920;2022-10-22T05:39:32;55.50;;;34.92;;
17595;SDS011;8916;47.086;15.920;2022-10-22T05:42:03;65.68;;;39.53;;
17595;SDS011;8916;47.086;15.920;2022-10-22T05:44:32;69.72;;;41.42;;
17595;SDS011;8916;47.086;15.920;2022-10-22T05:47:01;67.78;;;42.67;;
17595;SDS011;8916;47.086;15.920;2022-10-22T05:49:30;62.80;;;37.28;;
17595;SDS011;8916;47.086;15.920;2022-10-22T05:52:00;67.97;;;39.22;;
17595;SDS011;8916;47.086;15.920;2022-10-22T05:54:30;67.68;;;41.92;;
17595;SDS011;8916;47.086;15.920;2022-10-22T05:56:59;64.82;;;38.63;;
17595;SDS011;8916;47.086;15.920;2022-10-22T05:59:28;59.92;;;39.58;;
17595;SDS011;8916;47.086;15.920;2022-10-22T06:01:58;50.55;;;34.20;;
17595;SDS011;8916;47.086;15.920;2022-10-22T06:04:27;51.78;;;33.72;;
17595;SDS011;8916;47.086;15.920;2022-10-22T06:06:56;52.92;;;31.33;;
17595;SDS011;8916;47.086;15.920;2022-10-22T06:09:26;48.67;;;30.45;;
17595;SDS011;8916;47.086;15.920;2022-10-22T06:11:59;45.53;;;27.17;;
17595;SDS011;8916;47.086;15.920;2022-10-22T06:14:28;48.45;;;31.33;;
17595;SDS011;8916;47.086;15.920;2022-10-22T06:16:58;48.05;;;29.52;;
17595;SDS011;8916;47.086;15.920;2022-10-22T06:19:28;44.85;;;29.13;;
17595;SDS011;8916;47.086;15.920;2022-10-22T06:21:57;44.17;;;28.35;;
17595;SDS011;8916;47.086;15.920;2022-10-22T06:24:26;56.97;;;33.03;;
17595;SDS011;8916;47.086;15.920;2022-10-22T06:26:55;53.90;;;33.55;;
17595;SDS011;8916;47.086;15.920;2022-10-22T06:29:26;52.63;;;34.63;;
17595;SDS011;8916;47.086;15.920;2022-10-22T06:31:55;54.80;;;34.35;;
17595;SDS011;8916;47.086;15.920;2022-10-22T06:34:24;55.80;;;34.95;;
17595;SDS011;8916;47.086;15.920;2022-10-22T06:36:54;62.88;;;36.92;;
17595;SDS011;8916;47.086;15.920;2022-10-22T06:39:23;52.88;;;36.40;;
17595;SDS011;8916;47.086;15.920;2022-10-22T06:42:02;62.00;;;37.88;;
17595;SDS011;8916;47.086;15.920;2022-10-22T06:44:35;57.40;;;36.58;;
17595;SDS011;8916;47.086;15.920;2022-10-22T06:47:04;55.17;;;36.33;;
17595;SDS011;8916;47.086;15.920;2022-10-22T06:49:33;58.00;;;38.05;;
17595;SDS011;8916;47.086;15.920;2022-10-22T06:52:02;61.83;;;39.58;;
17595;SDS011;8916;47.086;15.920;2022-10-22T06:54:31;55.10;;;38.10;;
17595;SDS011;8916;47.086;15.920;2022-10-22T06:57:01;55.53;;;38.08;;
17595;SDS011;8916;47.086;15.920;2022-10-22T06:59:30;65.88;;;37.55;;
17595;SDS011;8916;47.086;15.920;2022-10-22T07:02:01;55.33;;;36.83;;
17595;SDS011;8916;47.086;15.920;2022-10-22T07:04:31;58.72;;;35.63;;
17595;SDS011;8916;47.086;15.920;2022-10-22T07:07:00;57.53;;;36.88;;
17595;SDS011;8916;47.086;15.920;2022-10-22T07:09:29;59.90;;;37.42;;
17595;SDS011;8916;47.086;15.920;2022-10-22T07:11:59;60.63;;;38.13;;
17595;SDS011;8916;47.086;15.920;2022-10-22T07:14:28;58.38;;;36.55;;
17595;SDS011;8916;47.086;15.920;2022-10-22T07:16:57;57.95;;;38.58;;
17595;SDS011;8916;47.086;15.920;2022-10-22T07:19:28;58.63;;;40.65;;
17595;SDS011;8916;47.086;15.920;2022-10-22T07:21:57;54.88;;;39.03;;
17595;SDS011;8916;47.086;15.920;2022-10-22T07:24:26;55.45;;;35.97;;
17595;SDS011;8916;47.086;15.920;2022-10-22T07:26:56;56.30;;;35.95;;
17595;SDS011;8916;47.086;15.920;2022-10-22T07:29:25;51.38;;;33.90;;
17595;SDS011;8916;47.086;15.920;2022-10-22T07:31:54;46.90;;;32.67;;
17595;SDS011;8916;47.086;15.920;2022-10-22T07:34:23;48.60;;;30.45;;
17595;SDS011;8916;47.086;15.920;2022-10-22T07:36:54;49.88;;;32.47;;
17595;SDS011;8916;47.086;15.920;2022-10-22T07:39:23;53.83;;;33.65;;
17595;SDS011;8916;47.086;15.920;2022-10-22T07:41:53;54.95;;;33.70;;
17595;SDS011;8916;47.086;15.920;2022-10-22T07:44:22;51.65;;;32.75;;
17595;SDS011;8916;47.086;15.920;2022-10-22T07:46:51;49.50;;;32.20;;
17595;SDS011;8916;47.086;15.920;2022-10-22T07:49:20;44.50;;;31.10;;
17595;SDS011;8916;47.086;15.920;2022-10-22T07:51:49;48.58;;;32.83;;
17595;SDS011;8916;47.086;15.920;2022-10-22T07:54:19;51.30;;;33.33;;
17595;SDS011;8916;47.086;15.920;2022-10-22T07:56:48;50.35;;;31.08;;
17595;SDS011;8916;47.086;15.920;2022-10-22T07:59:18;53.25;;;29.60;;
17595;SDS011;8916;47.086;15.920;2022-10-22T08:01:47;42.70;;;29.70;;
17595;SDS011;8916;47.086;15.920;2022-10-22T08:04:16;45.30;;;29.17;;
17595;SDS011;8916;47.086;15.920;2022-10-22T08:06:45;51.53;;;30.23;;
17595;SDS011;8916;47.086;15.920;2022-10-22T08:09:14;47.30;;;30.25;;
17595;SDS011;8916;47.086;15.920;2022-10-22T08:11:44;41.67;;;27.83;;
17595;SDS011;8916;47.086;15.920;2022-10-22T08:14:14;50.97;;;27.40;;
17595;SDS011;8916;47.086;15.920;2022-10-22T08:16:43;41.97;;;26.08;;
17595;SDS011;8916;47.086;15.920;2022-10-22T08:19:13;40.88;;;24.30;;
17595;SDS011;8916;47.086;15.920;2022-10-22T08:21:45;38.25;;;25.63;;
17595;SDS011;8916;47.086;15.920;2022-10-22T08:24:14;45.75;;;24.52;;
17595;SDS011;8916;47.086;15.920;2022-10-22T08:26:44;41.00;;;26.92;;
17595;SDS011;8916;47.086;15.920;2022-10-22T08:29:14;37.72;;;25.05;;
17595;SDS011;8916;47.086;15.920;2022-10-22T08:31:43;39.28;;;26.27;;
17595;SDS011;8916;47.086;15.920;2022-10-22T08:34:12;46.20;;;28.23;;
17595;SDS011;8916;47.086;15.920;2022-10-22T08:36:41;42.15;;;24.75;;
17595;SDS011;8916;47.086;15.920;2022-10-22T08:39:16;44.28;;;26.75;;
17595;SDS011;8916;47.086;15.920;2022-10-22T08:41:49;38.72;;;24.95;;
17595;SDS011;8916;47.086;15.920;2022-10-22T08:44:47;43.60;;;25.08;;
17595;SDS011;8916;47.086;15.920;2022-10-22T08:50:16;40.70;;;23.02;;
17595;SDS011;8916;47.086;15.920;2022-10-22T08:52:52;38.63;;;22.02;;
17595;SDS011;8916;47.086;15.920;2022-10-22T08:55:26;38.13;;;24.73;;
17595;SDS011;8916;47.086;15.920;2022-10-22T08:58:07;40.65;;;25.83;;
17595;SDS011;8916;47.086;15.920;2022-10-22T09:00:46;49.85;;;28.02;;
17595;SDS011;8916;47.086;15.920;2022-10-22T09:03:40;41.88;;;25.88;;
17595;SDS011;8916;47.086;15.920;2022-10-22T09:06:18;41.08;;;26.38;;
17595;SDS011;8916;47.086;15.920;2022-10-22T09:08:51;41.45;;;26.33;;
17595;SDS011;8916;47.086;15.920;2022-10-22T09:11:23;45.60;;;26.00;;
17595;SDS011;8916;47.086;15.920;2022-10-22T09:13:59;44.90;;;25.00;;
17595;SDS011;8916;47.086;15.920;2022-10-22T09:16:32;37.22;;;24.17;;
17595;SDS011;8916;47.086;15.920;2022-10-22T09:19:10;38.75;;;23.52;;
17595;SDS011;8916;47.086;15.920;2022-10-22T09:21:51;40.17;;;21.60;;
17595;SDS011;8916;47.086;15.920;2022-10-22T09:24:31;36.25;;;22.02;;
17595;SDS011;8916;47.086;15.920;2022-10-22T09:27:07;34.22;;;22.45;;
17595;SDS011;8916;47.086;15.920;2022-10-22T09:29:42;41.60;;;20.98;;
17595;SDS011;8916;47.086;15.920;2022-10-22T09:32:12;37.38;;;22.33;;
17595;SDS011;8916;47.086;15.920;2022-10-22T09:34:42;36.22;;;23.23;;
17595;SDS011;8916;47.086;15.920;2022-10-22T09:37:14;42.70;;;25.55;;
17595;SDS011;8916;47.086;15.920;2022-10-22T09:39:46;42.88;;;22.63;;
17595;SDS011;8916;47.086;15.920;2022-10-22T09:42:19;40.40;;;23.15;;
17595;SDS011;8916;47.086;15.920;2022-10-22T09:44:52;35.95;;;21.40;;
17595;SDS011;8916;47.086;15.920;2022-10-22T09:47:28;31.73;;;21.55;;
17595;SDS011;8916;47.086;15.920;2022-10-22T09:50:18;36.13;;;21.38;;
17595;SDS011;8916;47.086;15.920;2022-10-22T09:52:54;34.38;;;20.98;;
17595;SDS011;8916;47.086;15.920;2022-10-22T09:55:29;34.40;;;21.77;;
17595;SDS011;8916;47.086;15.920;2022-10-22T09:58:00;34.10;;;19.60;;
17595;SDS011;8916;47.086;15.920;2022-10-22T10:00:31;29.40;;;19.45;;
17595;SDS011;8916;47.086;15.920;2022-10-22T10:03:02;29.70;;;19.08;;
17595;SDS011;8916;47.086;15.920;2022-10-22T10:05:32;27.05;;;18.80;;
17595;SDS011;8916;47.086;15.920;2022-10-22T10:08:07;31.38;;;17.48;;
17595;SDS011;8916;47.086;15.920;2022-10-22T10:13:27;30.05;;;17.17;;
17595;SDS011;8916;47.086;15.920;2022-10-22T10:16:14;25.67;;;16.23;;
17595;SDS011;8916;47.086;15.920;2022-10-22T10:19:05;27.83;;;16.08;;
17595;SDS011;8916;47.086;15.920;2022-10-22T10:21:51;29.60;;;16.38;;
17595;SDS011;8916;47.086;15.920;2022-10-22T10:24:33;25.75;;;15.55;;
17595;SDS011;8916;47.086;15.920;2022-10-22T10:27:27;25.48;;;15.70;;
17595;SDS011;8916;47.086;15.920;2022-10-22T10:30:04;23.65;;;15.52;;
17595;SDS011;8916;47.086;15.920;2022-10-22T10:32:52;24.25;;;15.05;;
17595;SDS011;8916;47.086;15.920;2022-10-22T10:35:45;37.35;;;20.00;;
17595;SDS011;8916;47.086;15.920;2022-10-22T10:38:30;31.25;;;17.25;;
17595;SDS011;8916;47.086;15.920;2022-10-22T10:41:09;31.65;;;16.75;;
17595;SDS011;8916;47.086;15.920;2022-10-22T10:43:51;28.77;;;15.73;;
17595;SDS011;8916;47.086;15.920;2022-10-22T10:46:59;25.58;;;15.40;;
17595;SDS011;8916;47.086;15.920;2022-10-22T10:49:40;26.27;;;14.60;;
17595;SDS011;8916;47.086;15.920;2022-10-22T10:52:12;30.50;;;15.77;;
17595;SDS011;8916;47.086;15.920;2022-10-22T10:54:54;37.47;;;17.98;;
17595;SDS011;8916;47.086;15.920;2022-10-22T10:57:36;40.92;;;18.88;;
17595;SDS011;8916;47.086;15.920;2022-10-22T11:00:16;59.90;;;18.98;;
17595;SDS011;8916;47.086;15.920;2022-10-22T11:03:03;41.38;;;17.40;;
17595;SDS011;8916;47.086;15.920;2022-10-22T11:06:07;35.08;;;17.25;;
17595;SDS011;8916;47.086;15.920;2022-10-22T11:08:40;39.55;;;17.15;;
17595;SDS011;8916;47.086;15.920;2022-10-22T11:11:17;34.70;;;17.42;;
17595;SDS011;8916;47.086;15.920;2022-10-22T11:13:51;30.33;;;17.08;;
17595;SDS011;8916;47.086;15.920;2022-10-22T11:16:26;21.65;;;12.85;;
17595;SDS011;8916;47.086;15.920;2022-10-22T11:19:00;23.63;;;13.70;;
17595;SDS011;8916;47.086;15.920;2022-10-22T11:21:38;31.20;;;14.27;;
17595;SDS011;8916;47.086;15.920;2022-10-22T11:24:15;23.40;;;12.98;;
17595;SDS011;8916;47.086;15.920;2022-10-22T11:26:52;29.77;;;14.80;;
17595;SDS011;8916;47.086;15.920;2022-10-22T11:29:27;26.83;;;13.90;;
17595;SDS011;8916;47.086;15.920;2022-10-22T11:32:02;24.63;;;13.80;;
17595;SDS011;8916;47.086;15.920;2022-10-22T11:34:37;24.52;;;14.07;;
17595;SDS011;8916;47.086;15.920;2022-10-22T11:37:13;22.13;;;12.75;;
17595;SDS011;8916;47.086;15.920;2022-10-22T11:39:44;19.55;;;12.77;;
17595;SDS011;8916;47.086;15.920;2022-10-22T11:42:19;20.08;;;12.95;;
17595;SDS011;8916;47.086;15.920;2022-10-22T11:44:59;16.80;;;12.85;;
17595;SDS011;8916;47.086;15.920;2022-10-22T11:47:32;21.90;;;13.80;;
17595;SDS011;8916;47.086;15.920;2022-10-22T11:50:17;19.30;;;12.13;;
17595;SDS011;8916;47.086;15.920;2022-10-22T11:53:01;23.08;;;12.07;;
17595;SDS011;8916;47.086;15.920;2022-10-22T11:55:42;24.52;;;12.25;;
17595;SDS011;8916;47.086;15.920;2022-10-22T11:58:28;24.27;;;14.85;;
17595;SDS011;8916;47.086;15.920;2022-10-22T12:01:20;22.65;;;15.23;;
17595;SDS011;8916;47.086;15.920;2022-10-22T12:04:14;29.10;;;14.93;;
17595;SDS011;8916;47.086;15.920;2022-10-22T12:06:56;29.65;;;15.20;;
17595;SDS011;8916;47.086;15.920;2022-10-22T12:09:29;23.60;;;13.23;;
17595;SDS011;8916;47.086;15.920;2022-10-22T12:12:01;22.15;;;13.13;;
17595;SDS011;8916;47.086;15.920;2022-10-22T12:14:52;22.90;;;14.18;;
17595;SDS011;8916;47.086;15.920;2022-10-22T12:17:27;20.52;;;13.75;;
17595;SDS011;8916;47.086;15.920;2022-10-22T12:20:11;24.40;;;13.45;;
17595;SDS011;8916;47.086;15.920;2022-10-22T12:22:49;24.20;;;13.50;;
17595;SDS011;8916;47.086;15.920;2022-10-22T12:25:25;23.70;;;15.27;;
17595;SDS011;8916;47.086;15.920;2022-10-22T12:33:54;21.65;;;13.80;;
17595;SDS011;8916;47.086;15.920;2022-10-22T12:36:41;24.60;;;14.70;;
17595;SDS011;8916;47.086;15.920;2022-10-22T12:39:12;27.73;;;15.23;;
17595;SDS011;8916;47.086;15.920;2022-10-22T12:44:27;24.42;;;15.55;;
17595;SDS011;8916;47.086;15.920;2022-10-22T12:46:58;25.77;;;16.23;;
17595;SDS011;8916;47.086;15.920;2022-10-22T12:49:40;24.38;;;15.88;;
17595;SDS011;8916;47.086;15.920;2022-10-22T12:52:14;24.15;;;15.45;;
17595;SDS011;8916;47.086;15.920;2022-10-22T12:54:48;21.98;;;15.77;;
17595;SDS011;8916;47.086;15.920;2022-10-22T12:57:22;26.45;;;16.30;;
17595;SDS011;8916;47.086;15.920;2022-10-22T12:59:53;25.60;;;15.98;;
17595;SDS011;8916;47.086;15.920;2022-10-22T13:02:23;22.73;;;16.15;;
17595;SDS011;8916;47.086;15.920;2022-10-22T13:05:14;22.60;;;15.68;;
17595;SDS011;8916;47.086;15.920;2022-10-22T13:07:50;30.73;;;17.40;;
17595;SDS011;8916;47.086;15.920;2022-10-22T13:10:23;25.35;;;16.02;;
17595;SDS011;8916;47.086;15.920;2022-10-22T13:12:55;27.38;;;18.10;;
17595;SDS011;8916;47.086;15.920;2022-10-22T13:15:32;29.33;;;17.35;;
17595;SDS011;8916;47.086;15.920;2022-10-22T13:18:06;27.85;;;17.23;;
17595;SDS011;8916;47.086;15.920;2022-10-22T13:20:52;31.15;;;18.20;;
17595;SDS011;8916;47.086;15.920;2022-10-22T13:23:26;31.50;;;18.42;;
17595;SDS011;8916;47.086;15.920;2022-10-22T13:25:58;35.63;;;19.23;;
17595;SDS011;8916;47.086;15.920;2022-10-22T13:28:32;28.98;;;17.70;;
17595;SDS011;8916;47.086;15.920;2022-10-22T13:31:07;32.80;;;18.83;;
17595;SDS011;8916;47.086;15.920;2022-10-22T13:33:42;27.92;;;18.67;;
17595;SDS011;8916;47.086;15.920;2022-10-22T13:36:14;32.28;;;18.75;;
17595;SDS011;8916;47.086;15.920;2022-10-22T13:38:45;29.98;;;18.42;;
17595;SDS011;8916;47.086;15.920;2022-10-22T13:41:18;33.65;;;18.75;;
17595;SDS011;8916;47.086;15.920;2022-10-22T13:43:50;34.47;;;18.75;;
17595;SDS011;8916;47.086;15.920;2022-10-22T13:46:21;36.95;;;19.23;;
17595;SDS011;8916;47.086;15.920;2022-10-22T13:48:52;32.03;;;19.40;;
17595;SDS011;8916;47.086;15.920;2022-10-22T13:51:27;33.60;;;18.20;;
17595;SDS011;8916;47.086;15.920;2022-10-22T13:54:01;33.03;;;19.27;;
17595;SDS011;8916;47.086;15.920;2022-10-22T13:56:36;35.05;;;19.45;;
17595;SDS011;8916;47.086;15.920;2022-10-22T13:59:08;29.52;;;18.85;;
17595;SDS011;8916;47.086;15.920;2022-10-22T14:01:37;26.25;;;18.60;;
17595;SDS011;8916;47.086;15.920;2022-10-22T14:04:07;29.80;;;18.10;;
17595;SDS011;8916;47.086;15.920;2022-10-22T14:06:40;37.05;;;19.40;;
17595;SDS011;8916;47.086;15.920;2022-10-22T14:09:12;28.48;;;18.77;;
17595;SDS011;8916;47.086;15.920;2022-10-22T14:11:43;30.10;;;19.00;;
17595;SDS011;8916;47.086;15.920;2022-10-22T14:14:13;30.92;;;18.67;;
17595;SDS011;8916;47.086;15.920;2022-10-22T14:16:43;28.45;;;19.00;;
17595;SDS011;8916;47.086;15.920;2022-10-22T14:19:13;28.88;;;18.60;;
17595;SDS011;8916;47.086;15.920;2022-10-22T14:21:44;38.13;;;19.08;;
17595;SDS011;8916;47.086;15.920;2022-10-22T14:24:15;30.35;;;19.35;;
17595;SDS011;8916;47.086;15.920;2022-10-22T14:26:44;35.80;;;19.80;;
17595;SDS011;8916;47.086;15.920;2022-10-22T14:29:15;35.08;;;19.25;;
17595;SDS011;8916;47.086;15.920;2022-10-22T14:31:44;36.70;;;21.45;;
17595;SDS011;8916;47.086;15.920;2022-10-22T14:34:13;34.13;;;19.88;;
17595;SDS011;8916;47.086;15.920;2022-10-22T14:36:43;29.10;;;19.83;;
17595;SDS011;8916;47.086;15.920;2022-10-22T14:39:12;28.63;;;19.45;;
17595;SDS011;8916;47.086;15.920;2022-10-22T14:41:43;31.00;;;20.35;;
17595;SDS011;8916;47.086;15.920;2022-10-22T14:44:12;36.85;;;21.60;;
17595;SDS011;8916;47.086;15.920;2022-10-22T14:46:43;31.40;;;19.75;;
17595;SDS011;8916;47.086;15.920;2022-10-22T14:49:12;40.60;;;21.25;;
17595;SDS011;8916;47.086;15.920;2022-10-22T14:51:42;34.17;;;20.98;;
17595;SDS011;8916;47.086;15.920;2022-10-22T14:54:11;42.55;;;24.27;;
17595;SDS011;8916;47.086;15.920;2022-10-22T14:56:40;42.22;;;27.10;;
17595;SDS011;8916;47.086;15.920;2022-10-22T14:59:09;40.92;;;25.92;;
17595;SDS011;8916;47.086;15.920;2022-10-22T15:01:39;43.22;;;27.63;;
17595;SDS011;8916;47.086;15.920;2022-10-22T15:04:09;39.53;;;26.67;;
17595;SDS011;8916;47.086;15.920;2022-10-22T15:06:38;47.20;;;27.35;;
17595;SDS011;8916;47.086;15.920;2022-10-22T15:09:07;39.33;;;25.42;;
17595;SDS011;8916;47.086;15.920;2022-10-22T15:11:36;46.38;;;26.95;;
17595;SDS011;8916;47.086;15.920;2022-10-22T15:14:06;44.83;;;27.08;;
17595;SDS011;8916;47.086;15.920;2022-10-22T15:16:35;42.00;;;24.70;;